Time,TemperatureF,DewpointF,PressureIn,WindDirection,WindDirectionDegrees,WindSpeedMPH,WindSpeedGustMPH,Humidity,HourlyPrecipIn,Conditions,Clouds,dailyrainin,SoftwareType,DateUTC
2013-04-14 00:01:00,35.0,31.0,-100.00,WSW,255,0.0,6.0,83,0.00,,,-99.99,,2013-04-14 06:01:00,
2013-04-14 00:11:00,35.0,31.0,-100.00,NW,305,1.0,6.0,84,0.00,,,-99.99,,2013-04-14 06:11:00,
2013-04-14 00:21:00,35.0,31.0,-100.00,NW,305,1.0,6.0,84,0.00,,,-99.99,,2013-04-14 06:21:00,
2013-04-14 00:32:00,34.0,30.0,-100.00,SE,145,0.0,1.0,85,0.00,,,-99.99,,2013-04-14 06:32:00,
2013-04-14 00:42:00,34.0,30.0,-100.00,ENE,65,0.0,3.0,85,0.00,,,-99.99,,2013-04-14 06:42:00,
2013-04-14 00:51:00,34.0,30.0,-100.00,SW,235,0.0,0.0,86,0.00,,,-99.99,,2013-04-14 06:51:00,
2013-04-14 01:02:00,34.0,30.0,-100.00,SE,145,0.0,0.0,86,0.00,,,-99.99,,2013-04-14 07:02:00,
2013-04-14 01:11:00,34.0,31.0,-100.00,East,80,0.0,0.0,87,0.00,,,-99.99,,2013-04-14 07:11:00,
2013-04-14 01:21:00,34.0,31.0,-100.00,NE,35,0.0,0.0,87,0.00,,,-99.99,,2013-04-14 07:21:00,
2013-04-14 01:32:00,34.0,31.0,-100.00,ESE,105,0.0,0.0,88,0.00,,,-99.99,,2013-04-14 07:32:00,
2013-04-14 01:42:00,35.0,31.0,-100.00,North,10,0.0,3.0,88,0.00,,,-99.99,,2013-04-14 07:42:00,
2013-04-14 01:52:00,35.0,32.0,-100.00,ENE,75,0.0,0.0,88,0.00,,,-99.99,,2013-04-14 07:52:00,
2013-04-14 02:01:00,35.0,32.0,-100.00,ESE,105,0.0,1.0,88,0.00,,,-99.99,,2013-04-14 08:01:00,
2013-04-14 02:11:00,35.0,32.0,-100.00,SW,235,0.0,4.0,88,0.00,,,-99.99,,2013-04-14 08:11:00,
2013-04-14 02:21:00,35.0,31.0,-100.00,ENE,75,0.0,0.0,88,0.00,,,-99.99,,2013-04-14 08:21:00,
2013-04-14 02:32:00,35.0,31.0,-100.00,SSE,160,0.0,0.0,88,0.00,,,-99.99,,2013-04-14 08:32:00,
2013-04-14 02:42:00,35.0,32.0,-100.00,North,0,0.0,1.0,88,0.00,,,-99.99,,2013-04-14 08:42:00,
2013-04-14 02:51:00,35.0,32.0,-100.00,NE,45,0.0,0.0,89,0.00,,,-99.99,,2013-04-14 08:51:00,
2013-04-14 03:02:00,35.0,32.0,-100.00,South,170,0.0,1.0,89,0.00,,,-99.99,,2013-04-14 09:02:00,
2013-04-14 03:12:00,35.0,32.0,-100.00,ENE,65,0.0,1.0,89,0.00,,,-99.99,,2013-04-14 09:12:00,
2013-04-14 03:21:00,34.0,31.0,-100.00,NE,55,0.0,0.0,89,0.00,,,-99.99,,2013-04-14 09:21:00,
2013-04-14 03:32:00,34.0,31.0,-100.00,ENE,70,0.0,0.0,89,0.00,,,-99.99,,2013-04-14 09:32:00,
2013-04-14 03:42:00,33.0,31.0,-100.00,NE,55,0.0,0.0,89,0.00,,,-99.99,,2013-04-14 09:42:00,
2013-04-14 03:53:00,33.0,30.0,-100.00,South,170,0.0,0.0,89,0.10,,,-99.99,,2013-04-14 09:53:00,
2013-04-14 04:02:00,33.0,30.0,-100.00,NW,315,0.0,0.0,89,0.10,,,-99.99,,2013-04-14 10:02:00,
2013-04-14 04:12:00,33.0,30.0,-100.00,NW,325,10.0,16.0,89,0.10,,,-99.99,,2013-04-14 10:12:00,
2013-04-14 04:22:00,33.0,30.0,-100.00,NW,320,2.0,9.0,89,0.00,,,-99.99,,2013-04-14 10:22:00,
2013-04-14 04:32:00,33.0,30.0,-100.00,WNW,285,0.0,8.0,89,0.00,,,-99.99,,2013-04-14 10:32:00,
2013-04-14 04:42:00,33.0,30.0,-100.00,WSW,250,0.0,3.0,89,0.00,,,-99.99,,2013-04-14 10:42:00,
2013-04-14 04:52:00,33.0,30.0,-100.00,NW,315,0.0,6.0,89,0.00,,,-99.99,,2013-04-14 10:52:00,
2013-04-14 05:02:00,33.0,30.0,-100.00,NW,310,1.0,11.0,89,0.00,,,-99.99,,2013-04-14 11:02:00,
2013-04-14 05:12:00,33.0,30.0,-100.00,WNW,290,3.0,5.0,89,0.00,,,-99.99,,2013-04-14 11:12:00,
2013-04-14 05:22:00,33.0,30.0,-100.00,North,0,0.0,7.0,89,0.00,,,-99.99,,2013-04-14 11:22:00,
2013-04-14 05:32:00,33.0,30.0,-100.00,North,0,0.0,0.0,89,0.00,,,-99.99,,2013-04-14 11:32:00,
2013-04-14 05:42:00,33.0,30.0,-100.00,North,0,0.0,2.0,89,0.00,,,-99.99,,2013-04-14 11:42:00,
2013-04-14 05:52:00,33.0,30.0,-100.00,NW,320,0.0,0.0,89,0.00,,,-99.99,,2013-04-14 11:52:00,
2013-04-14 06:02:00,32.0,30.0,-100.00,NW,320,0.0,0.0,89,0.00,,,-99.99,,2013-04-14 12:02:00,
2013-04-14 06:12:00,32.0,29.0,-100.00,NW,325,2.0,10.0,89,0.00,,,-99.99,,2013-04-14 12:12:00,
2013-04-14 06:21:00,31.0,29.0,-100.00,NW,315,0.0,9.0,89,0.00,,,-99.99,,2013-04-14 12:21:00,
2013-04-14 06:32:00,31.0,28.0,-100.00,NW,315,2.0,6.0,89,0.00,,,-99.99,,2013-04-14 12:32:00,
2013-04-14 06:42:00,30.0,27.0,-100.00,SSW,195,0.0,3.0,89,0.00,,,-99.99,,2013-04-14 12:42:00,
2013-04-14 06:51:00,30.0,27.0,-100.00,SE,130,0.0,0.0,89,0.00,,,-99.99,,2013-04-14 12:51:00,
2013-04-14 07:02:00,30.0,27.0,-100.00,East,90,0.0,3.0,88,0.00,,,-99.99,,2013-04-14 13:02:00,
2013-04-14 07:12:00,29.0,26.0,-100.00,ESE,115,0.0,0.0,88,0.00,,,-99.99,,2013-04-14 13:12:00,
2013-04-14 07:22:00,29.0,26.0,-100.00,NNE,15,0.0,0.0,88,0.00,,,-99.99,,2013-04-14 13:22:00,
2013-04-14 07:32:00,28.0,25.0,-100.00,ENE,65,0.0,0.0,88,0.00,,,-99.99,,2013-04-14 13:32:00,
2013-04-14 07:42:00,28.0,25.0,-100.00,SE,145,0.0,0.0,88,0.00,,,-99.99,,2013-04-14 13:42:00,
2013-04-14 07:52:00,29.0,26.0,-100.00,SW,220,0.0,0.0,87,0.00,,,-99.99,,2013-04-14 13:52:00,
2013-04-14 08:02:00,29.0,26.0,-100.00,ESE,105,0.0,0.0,87,0.00,,,-99.99,,2013-04-14 14:02:00,
2013-04-14 08:11:00,30.0,26.0,-100.00,SE,125,0.0,3.0,86,0.00,,,-99.99,,2013-04-14 14:11:00,
2013-04-14 08:21:00,31.0,27.0,-100.00,North,10,0.0,4.0,85,0.00,,,-99.99,,2013-04-14 14:21:00,
2013-04-14 08:32:00,31.0,25.0,-100.00,NW,305,7.0,14.0,80,0.00,,,-99.99,,2013-04-14 14:32:00,
2013-04-14 08:42:00,31.0,25.0,-100.00,West,275,2.0,7.0,75,0.00,,,-99.99,,2013-04-14 14:42:00,
2013-04-14 08:52:00,33.0,24.0,-100.00,SW,225,2.0,13.0,70,0.00,,,-99.99,,2013-04-14 14:52:00,
2013-04-14 09:02:00,32.0,21.0,-100.00,North,0,5.0,10.0,62,0.00,,,-99.99,,2013-04-14 15:02:00,
2013-04-14 09:12:00,33.0,19.0,-100.00,NNW,330,6.0,10.0,56,0.00,,,-99.99,,2013-04-14 15:12:00,
2013-04-14 09:22:00,33.0,18.0,-100.00,WNW,285,4.0,12.0,53,0.00,,,-99.99,,2013-04-14 15:22:00,
2013-04-14 09:33:00,33.0,17.0,-100.00,NNW,330,7.0,11.0,50,0.00,,,-99.99,,2013-04-14 15:33:00,
2013-04-14 09:43:00,34.0,17.0,-100.00,NNW,330,1.0,11.0,48,0.00,,,-99.99,,2013-04-14 15:43:00,
2013-04-14 09:52:00,34.0,17.0,-100.00,NW,325,4.0,15.0,47,0.00,,,-99.99,,2013-04-14 15:52:00,
2013-04-14 10:03:00,35.0,17.0,-100.00,NW,310,6.0,12.0,46,0.00,,,-99.99,,2013-04-14 16:03:00,
2013-04-14 10:13:00,35.0,17.0,-100.00,NNW,335,7.0,11.0,46,0.00,,,-99.99,,2013-04-14 16:13:00,
2013-04-14 10:22:00,35.0,16.0,-100.00,NW,310,7.0,16.0,44,0.00,,,-99.99,,2013-04-14 16:22:00,
2013-04-14 10:32:00,35.0,15.0,-100.00,WNW,290,6.0,14.0,42,0.00,,,-99.99,,2013-04-14 16:32:00,
2013-04-14 10:43:00,34.0,13.0,-100.00,NNW,330,13.0,19.0,41,0.00,,,-99.99,,2013-04-14 16:43:00,
2013-04-14 10:52:00,34.0,12.0,-100.00,NW,320,12.0,19.0,40,0.00,,,-99.99,,2013-04-14 16:52:00,
2013-04-14 11:02:00,33.0,11.0,-100.00,NNW,330,11.0,16.0,39,0.00,,,-99.99,,2013-04-14 17:02:00,
2013-04-14 11:12:00,35.0,13.0,-100.00,NW,325,9.0,16.0,39,0.00,,,-99.99,,2013-04-14 17:12:00,
2013-04-14 11:22:00,35.0,13.0,-100.00,NW,325,7.0,16.0,39,0.00,,,-99.99,,2013-04-14 17:22:00,
2013-04-14 11:32:00,36.0,13.0,-100.00,NNW,340,10.0,16.0,39,0.00,,,-99.99,,2013-04-14 17:32:00,
2013-04-14 11:41:00,37.0,14.0,-100.00,NNW,330,11.0,16.0,39,0.00,,,-99.99,,2013-04-14 17:41:00,
2013-04-14 11:52:00,37.0,14.0,-100.00,NNW,345,9.0,14.0,38,0.00,,,-99.99,,2013-04-14 17:52:00,
2013-04-14 12:02:00,36.0,13.0,-100.00,North,350,9.0,18.0,38,0.00,,,-99.99,,2013-04-14 18:02:00,
2013-04-14 12:12:00,38.0,15.0,-100.00,NNW,340,7.0,16.0,39,0.00,,,-99.99,,2013-04-14 18:12:00,
2013-04-14 12:21:00,38.0,15.0,-100.00,North,350,6.0,14.0,39,0.00,,,-99.99,,2013-04-14 18:21:00,
2013-04-14 12:32:00,39.0,16.0,-100.00,NNW,330,7.0,18.0,39,0.00,,,-99.99,,2013-04-14 18:32:00,
2013-04-14 12:42:00,40.0,16.0,-100.00,NW,320,9.0,16.0,38,0.00,,,-99.99,,2013-04-14 18:42:00,
2013-04-14 12:52:00,41.0,18.0,-100.00,NW,310,7.0,12.0,38,0.00,,,-99.99,,2013-04-14 18:52:00,
2013-04-14 13:02:00,42.0,18.0,-100.00,NNW,330,9.0,14.0,37,0.00,,,-99.99,,2013-04-14 19:02:00,
2013-04-14 13:12:00,41.0,16.0,-100.00,NW,320,10.0,16.0,35,0.00,,,-99.99,,2013-04-14 19:12:00,
2013-04-14 13:22:00,41.0,16.0,-100.00,NW,320,10.0,16.0,35,0.00,,,-99.99,,2013-04-14 19:22:00,
2013-04-14 13:32:00,44.0,16.0,-100.00,West,280,6.0,21.0,32,0.00,,,-99.99,,2013-04-14 19:32:00,
2013-04-14 13:42:00,44.0,15.0,-100.00,West,275,9.0,17.0,30,0.00,,,-99.99,,2013-04-14 19:42:00,
2013-04-14 13:52:00,44.0,13.0,-100.00,NW,315,9.0,21.0,28,0.00,,,-99.99,,2013-04-14 19:52:00,
2013-04-14 14:02:00,42.0,10.0,-100.00,NW,325,6.0,21.0,26,0.00,,,-99.99,,2013-04-14 20:02:00,
2013-04-14 14:12:00,44.0,11.0,-100.00,West,270,9.0,21.0,26,0.00,,,-99.99,,2013-04-14 20:12:00,
2013-04-14 14:21:00,45.0,11.0,-100.00,West,260,4.0,12.0,25,0.00,,,-99.99,,2013-04-14 20:21:00,
2013-04-14 14:32:00,46.0,13.0,-100.00,West,280,5.0,16.0,25,0.00,,,-99.99,,2013-04-14 20:32:00,
2013-04-14 14:42:00,47.0,13.0,-100.00,West,265,6.0,22.0,25,0.00,,,-99.99,,2013-04-14 20:42:00,
2013-04-14 14:52:00,46.0,11.0,-100.00,WSW,255,7.0,17.0,24,0.00,,,-99.99,,2013-04-14 20:52:00,
2013-04-14 15:02:00,47.0,13.0,-100.00,West,280,4.0,17.0,24,0.00,,,-99.99,,2013-04-14 21:02:00,
2013-04-14 15:11:00,48.0,13.0,-100.00,West,260,7.0,16.0,23,0.00,,,-99.99,,2013-04-14 21:11:00,
2013-04-14 15:22:00,45.0,10.0,-100.00,NW,320,7.0,21.0,22,0.00,,,-99.99,,2013-04-14 21:22:00,
2013-04-14 15:32:00,46.0,10.0,-100.00,NW,305,12.0,23.0,22,0.00,,,-99.99,,2013-04-14 21:32:00,
2013-04-14 15:43:00,46.0,10.0,-100.00,NNW,335,11.0,21.0,22,0.00,,,-99.99,,2013-04-14 21:43:00,
2013-04-14 15:52:00,45.0,9.0,-100.00,NW,315,13.0,25.0,22,0.00,,,-99.99,,2013-04-14 21:52:00,
2013-04-14 16:02:00,45.0,9.0,-100.00,WNW,295,7.0,24.0,22,0.00,,,-99.99,,2013-04-14 22:02:00,
2013-04-14 16:12:00,46.0,11.0,-100.00,WNW,295,6.0,12.0,23,0.00,,,-99.99,,2013-04-14 22:12:00,
2013-04-14 16:32:00,48.0,15.0,-100.00,SW,230,5.0,12.0,25,0.00,,,-99.99,,2013-04-14 22:32:00,
2013-04-14 16:43:00,47.0,14.0,-100.00,WNW,290,7.0,14.0,26,0.00,,,-99.99,,2013-04-14 22:43:00,
2013-04-14 16:52:00,46.0,14.0,-100.00,NW,315,7.0,15.0,27,0.00,,,-99.99,,2013-04-14 22:52:00,
2013-04-14 17:02:00,46.0,15.0,-100.00,WNW,295,9.0,16.0,27,0.00,,,-99.99,,2013-04-14 23:02:00,
2013-04-14 17:12:00,46.0,14.0,-100.00,NW,320,9.0,15.0,27,0.00,,,-99.99,,2013-04-14 23:12:00,
2013-04-14 17:22:00,46.0,14.0,-100.00,WNW,300,7.0,16.0,27,0.00,,,-99.99,,2013-04-14 23:22:00,
2013-04-14 17:32:00,45.0,14.0,-100.00,NNW,335,11.0,19.0,27,0.00,,,-99.99,,2013-04-14 23:32:00,
2013-04-14 17:42:00,45.0,14.0,-100.00,NNW,340,9.0,17.0,27,0.00,,,-99.99,,2013-04-14 23:42:00,
2013-04-14 17:52:00,46.0,14.0,-100.00,NW,320,6.0,15.0,27,0.00,,,-99.99,,2013-04-14 23:52:00,
2013-04-14 18:01:00,46.0,14.0,-100.00,NNW,330,7.0,13.0,27,0.00,,,-99.99,,2013-04-15 00:01:00,
2013-04-14 18:12:00,45.0,14.0,-100.00,WNW,285,4.0,11.0,27,0.00,,,-99.99,,2013-04-15 00:12:00,
2013-04-14 18:22:00,45.0,14.0,-100.00,NNW,345,7.0,11.0,28,0.00,,,-99.99,,2013-04-15 00:22:00,
2013-04-14 18:32:00,45.0,15.0,-100.00,North,350,6.0,12.0,28,0.00,,,-99.99,,2013-04-15 00:32:00,
2013-04-14 18:42:00,45.0,14.0,-100.00,North,0,2.0,10.0,28,0.00,,,-99.99,,2013-04-15 00:42:00,
2013-04-14 18:52:00,45.0,15.0,-100.00,North,350,2.0,6.0,28,0.00,,,-99.99,,2013-04-15 00:52:00,
2013-04-14 19:02:00,47.0,16.0,-100.00,SW,230,3.0,7.0,29,0.00,,,-99.99,,2013-04-15 01:02:00,
2013-04-14 19:12:00,46.0,15.0,-100.00,SSE,155,3.0,6.0,29,0.00,,,-99.99,,2013-04-15 01:12:00,
2013-04-14 19:22:00,45.0,15.0,-100.00,SSE,150,7.0,12.0,29,0.00,,,-99.99,,2013-04-15 01:22:00,
2013-04-14 19:32:00,44.0,15.0,-100.00,SE,135,6.0,15.0,31,0.00,,,-99.99,,2013-04-15 01:32:00,
2013-04-14 19:42:00,43.0,16.0,-100.00,SE,130,5.0,12.0,33,0.00,,,-99.99,,2013-04-15 01:42:00,
2013-04-14 19:52:00,42.0,17.0,-100.00,ESE,115,6.0,9.0,34,0.00,,,-99.99,,2013-04-15 01:52:00,
2013-04-14 20:02:00,42.0,17.0,-100.00,SE,135,7.0,10.0,36,0.00,,,-99.99,,2013-04-15 02:02:00,
2013-04-14 20:12:00,42.0,18.0,-100.00,SE,140,7.0,9.0,38,0.00,,,-99.99,,2013-04-15 02:12:00,
2013-04-14 20:21:00,42.0,19.0,-100.00,SE,125,6.0,9.0,39,0.00,,,-99.99,,2013-04-15 02:21:00,
2013-04-14 20:32:00,41.0,19.0,-100.00,SSE,165,2.0,7.0,40,0.00,,,-99.99,,2013-04-15 02:32:00,
2013-04-14 20:42:00,41.0,20.0,-100.00,SE,135,5.0,10.0,42,0.00,,,-99.99,,2013-04-15 02:42:00,
2013-04-14 20:52:00,41.0,20.0,-100.00,SE,130,5.0,8.0,43,0.00,,,-99.99,,2013-04-15 02:52:00,
2013-04-14 21:02:00,41.0,21.0,-100.00,SSW,210,2.0,6.0,44,0.00,,,-99.99,,2013-04-15 03:02:00,
2013-04-14 21:12:00,41.0,21.0,-100.00,West,260,0.0,1.0,45,0.00,,,-99.99,,2013-04-15 03:12:00,
2013-04-14 21:21:00,40.0,22.0,-100.00,West,260,0.0,2.0,47,0.00,,,-99.99,,2013-04-15 03:21:00,
2013-04-14 21:32:00,40.0,22.0,-100.00,SE,130,2.0,6.0,48,0.00,,,-99.99,,2013-04-15 03:32:00,
2013-04-14 21:43:00,40.0,22.0,-100.00,SE,140,1.0,6.0,48,0.00,,,-99.99,,2013-04-15 03:43:00,
2013-04-14 21:53:00,40.0,22.0,-100.00,SSE,150,4.0,6.0,49,0.00,,,-99.99,,2013-04-15 03:53:00,
2013-04-14 22:02:00,40.0,23.0,-100.00,SE,145,4.0,7.0,49,0.00,,,-99.99,,2013-04-15 04:02:00,
2013-04-14 22:12:00,40.0,23.0,-100.00,SE,140,1.0,6.0,50,0.00,,,-99.99,,2013-04-15 04:12:00,
2013-04-14 22:22:00,40.0,23.0,-100.00,SE,145,2.0,7.0,51,0.00,,,-99.99,,2013-04-15 04:22:00,
2013-04-14 22:32:00,40.0,23.0,-100.00,SW,220,0.0,4.0,51,0.00,,,-99.99,,2013-04-15 04:32:00,
2013-04-14 22:42:00,40.0,24.0,-100.00,SE,125,4.0,7.0,51,0.00,,,-99.99,,2013-04-15 04:42:00,
2013-04-14 22:52:00,40.0,24.0,-100.00,ESE,120,2.0,4.0,52,0.00,,,-99.99,,2013-04-15 04:52:00,
2013-04-14 23:02:00,40.0,24.0,-100.00,South,170,2.0,7.0,52,0.00,,,-99.99,,2013-04-15 05:02:00,
2013-04-14 23:12:00,40.0,24.0,-100.00,North,5,0.0,4.0,52,0.00,,,-99.99,,2013-04-15 05:12:00,
2013-04-14 23:22:00,40.0,24.0,-100.00,ESE,120,9.0,12.0,52,0.00,,,-99.99,,2013-04-15 05:22:00,
2013-04-14 23:32:00,39.0,24.0,-100.00,ESE,110,6.0,10.0,53,0.00,,,-99.99,,2013-04-15 05:32:00,
2013-04-14 23:42:00,40.0,24.0,-100.00,ESE,105,7.0,10.0,52,0.00,,,-99.99,,2013-04-15 05:42:00,
2013-04-14 23:52:00,40.0,24.0,-100.00,ENE,70,4.0,9.0,51,0.00,,,-99.99,,2013-04-15 05:52:00,